createdAt,value
2023-03-16T00:00:09.610Z,10.48
2023-03-16T00:02:35.992Z,7.60
2023-03-16T00:05:02.366Z,10.20
2023-03-16T00:07:29.136Z,8.95
2023-03-16T00:09:55.519Z,7.20
2023-03-16T00:12:22.638Z,9.23
2023-03-16T00:14:49.531Z,8.65
2023-03-16T00:17:20.003Z,8.52
2023-03-16T00:19:48.248Z,8.90
2023-03-16T00:22:17.526Z,8.73
2023-03-16T00:24:43.933Z,9.13
2023-03-16T00:27:14.671Z,8.45
2023-03-16T00:29:47.138Z,11.45
2023-03-16T00:32:19.068Z,6.05
2023-03-16T00:34:47.024Z,8.65
2023-03-16T00:37:16.672Z,9.43
2023-03-16T00:39:44.541Z,10.23
2023-03-16T00:42:12.095Z,9.82
2023-03-16T00:44:38.938Z,8.73
2023-03-16T00:47:06.459Z,9.85
2023-03-16T00:49:34.818Z,7.93
2023-03-16T00:52:05.400Z,6.15
2023-03-16T00:54:35.162Z,9.98
2023-03-16T00:57:02.500Z,7.63
2023-03-16T00:59:30.422Z,8.60
2023-03-16T01:01:56.845Z,9.40
2023-03-16T01:04:23.214Z,7.30
2023-03-16T01:06:49.779Z,9.70
2023-03-16T01:09:16.162Z,10.13
2023-03-16T01:11:43.114Z,8.27
2023-03-16T01:14:10.629Z,12.07
2023-03-16T01:16:37.550Z,7.75
2023-03-16T01:19:04.252Z,10.43
2023-03-16T01:21:32.449Z,8.60
2023-03-16T01:23:58.956Z,9.13
2023-03-16T01:26:25.394Z,7.93
2023-03-16T01:28:51.818Z,10.05
2023-03-16T01:31:18.355Z,9.48
2023-03-16T01:33:44.809Z,8.65
2023-03-16T01:36:14.194Z,11.15
2023-03-16T01:38:41.312Z,9.07
2023-03-16T01:41:08.484Z,8.50
2023-03-16T01:43:37.531Z,8.60
2023-03-16T01:46:07.078Z,8.30
2023-03-16T01:48:42.454Z,8.13
2023-03-16T01:51:21.111Z,9.95
2023-03-16T01:53:53.034Z,11.10
2023-03-16T01:56:25.652Z,9.30
2023-03-16T01:58:58.639Z,9.07
2023-03-16T02:01:27.303Z,12.40
2023-03-16T02:04:06.510Z,9.35
2023-03-16T02:06:34.464Z,8.65
2023-03-16T02:09:01.524Z,9.15
2023-03-16T02:11:28.344Z,10.30
2023-03-16T02:13:59.535Z,9.38
2023-03-16T02:16:26.512Z,9.30
2023-03-16T02:18:53.345Z,10.10
2023-03-16T02:21:33.160Z,9.43
2023-03-16T02:24:03.130Z,7.22
2023-03-16T02:29:18.185Z,10.57
2023-03-16T02:31:44.743Z,9.40
2023-03-16T02:34:13.149Z,11.65
2023-03-16T02:36:41.688Z,9.50
2023-03-16T02:39:08.137Z,10.27
2023-03-16T02:41:34.724Z,9.55
2023-03-16T02:44:14.585Z,11.90
2023-03-16T02:46:43.311Z,8.10
2023-03-16T02:49:24.967Z,10.93
2023-03-16T02:51:51.991Z,12.13
2023-03-16T02:54:18.954Z,13.05
2023-03-16T02:56:45.729Z,12.38
2023-03-16T02:59:12.177Z,11.10
2023-03-16T03:01:38.710Z,15.32
2023-03-16T03:04:06.179Z,11.27
2023-03-16T03:06:33.159Z,10.35
2023-03-16T03:09:00.438Z,13.80
2023-03-16T03:11:26.845Z,13.73
2023-03-16T03:13:54.516Z,13.55
2023-03-16T03:16:21.276Z,13.60
2023-03-16T03:18:48.419Z,15.80
2023-03-16T03:21:15.037Z,14.80
2023-03-16T03:23:41.375Z,14.70
2023-03-16T03:26:08.044Z,15.25
2023-03-16T03:28:34.440Z,15.05
2023-03-16T03:31:01.692Z,14.05
2023-03-16T03:33:28.377Z,16.27
2023-03-16T03:35:59.463Z,16.15
2023-03-16T03:38:26.295Z,17.88
2023-03-16T03:40:53.971Z,17.02
2023-03-16T03:43:21.080Z,12.07
2023-03-16T03:45:47.762Z,18.50
2023-03-16T03:48:14.149Z,14.82
2023-03-16T03:50:40.805Z,12.27
2023-03-16T03:53:07.753Z,14.40
2023-03-16T03:55:34.129Z,16.58
2023-03-16T03:58:00.873Z,12.90
2023-03-16T04:00:27.413Z,15.70
2023-03-16T04:02:53.994Z,14.38
2023-03-16T04:05:20.449Z,14.48
2023-03-16T04:07:46.813Z,14.88
2023-03-16T04:10:13.204Z,15.75
2023-03-16T04:12:39.655Z,15.93
2023-03-16T04:15:06.347Z,15.07
2023-03-16T04:17:34.338Z,15.90
2023-03-16T04:20:02.087Z,13.43
2023-03-16T04:22:31.043Z,11.27
2023-03-16T04:24:57.398Z,15.20
2023-03-16T04:27:23.894Z,11.50
2023-03-16T04:29:50.255Z,14.98
2023-03-16T04:32:16.627Z,14.38
2023-03-16T04:34:43.764Z,10.93
2023-03-16T04:37:10.238Z,13.32
2023-03-16T04:39:36.650Z,13.75
2023-03-16T04:42:03.057Z,13.50
2023-03-16T04:44:29.475Z,12.27
2023-03-16T04:46:55.839Z,16.30
2023-03-16T04:49:22.181Z,14.18
2023-03-16T04:51:48.552Z,15.32
2023-03-16T04:54:15.384Z,13.45
2023-03-16T04:56:41.833Z,14.13
2023-03-16T04:59:08.278Z,16.52
2023-03-16T05:01:34.674Z,13.25
2023-03-16T05:04:02.390Z,11.55
2023-03-16T05:06:29.352Z,12.05
2023-03-16T05:08:55.715Z,16.42
2023-03-16T05:11:22.055Z,12.48
2023-03-16T05:13:48.404Z,13.40
2023-03-16T05:16:14.827Z,14.25
2023-03-16T05:18:41.611Z,13.80
2023-03-16T05:21:08.122Z,15.50
2023-03-16T05:23:34.538Z,16.88
2023-03-16T05:26:01.004Z,15.65
2023-03-16T05:28:27.958Z,15.80
2023-03-16T05:30:54.782Z,13.10
2023-03-16T05:33:21.576Z,14.55
2023-03-16T05:35:48.170Z,14.20
2023-03-16T05:38:15.782Z,17.63
2023-03-16T05:40:42.320Z,13.73
2023-03-16T05:43:08.812Z,19.30
2023-03-16T05:45:35.201Z,15.52
2023-03-16T05:48:01.574Z,13.90
2023-03-16T05:50:28.575Z,16.63
2023-03-16T05:52:55.031Z,13.90
2023-03-16T05:55:21.403Z,12.82
2023-03-16T05:57:47.830Z,13.23
2023-03-16T06:00:16.205Z,19.15
2023-03-16T06:02:43.554Z,14.85
2023-03-16T06:05:10.192Z,15.02
2023-03-16T06:07:36.720Z,13.93
2023-03-16T06:10:04.744Z,17.27
2023-03-16T06:12:31.140Z,14.85
2023-03-16T06:14:57.500Z,15.02
2023-03-16T06:17:23.893Z,13.82
2023-03-16T06:19:50.241Z,15.55
2023-03-16T06:22:18.049Z,15.60
2023-03-16T06:24:44.777Z,16.10
2023-03-16T06:27:11.494Z,17.33
2023-03-16T06:29:37.961Z,18.77
2023-03-16T06:32:04.712Z,15.70
2023-03-16T06:34:32.156Z,14.80
2023-03-16T06:36:58.518Z,17.50
2023-03-16T06:39:26.308Z,12.45
2023-03-16T06:41:53.349Z,14.00
2023-03-16T06:44:19.696Z,13.45
2023-03-16T06:46:46.043Z,14.32
2023-03-16T06:49:12.403Z,14.43
2023-03-16T06:51:38.767Z,14.02
2023-03-16T06:54:05.117Z,13.32
2023-03-16T06:56:31.862Z,11.30
2023-03-16T06:58:58.280Z,11.48
2023-03-16T07:01:24.957Z,13.23
2023-03-16T07:03:51.398Z,13.10
2023-03-16T07:06:18.184Z,11.98
2023-03-16T07:08:44.903Z,11.82
2023-03-16T07:11:11.326Z,12.07
2023-03-16T07:13:38.146Z,13.98
2023-03-16T07:16:04.957Z,12.27
2023-03-16T07:18:31.696Z,14.68
2023-03-16T07:20:58.302Z,13.43
2023-03-16T07:23:25.092Z,10.38
2023-03-16T07:25:52.633Z,17.17
2023-03-16T07:28:20.041Z,17.90
2023-03-16T07:31:02.631Z,16.10
2023-03-16T07:33:32.177Z,11.13
2023-03-16T07:35:59.031Z,10.30
2023-03-16T07:38:25.442Z,9.05
2023-03-16T07:40:52.262Z,13.85
2023-03-16T07:43:18.617Z,13.65
2023-03-16T07:45:49.987Z,13.10
2023-03-16T07:48:17.023Z,12.13
2023-03-16T07:50:43.676Z,11.05
2023-03-16T07:53:10.294Z,12.90
2023-03-16T07:55:38.297Z,15.20
2023-03-16T07:58:06.087Z,69.53
2023-03-16T08:00:33.626Z,69.38
2023-03-16T08:03:00.534Z,54.40
2023-03-16T08:05:27.895Z,14.10
2023-03-16T08:07:56.040Z,15.27
2023-03-16T08:10:23.165Z,12.73
2023-03-16T08:12:49.655Z,12.23
2023-03-16T08:15:16.429Z,15.18
2023-03-16T08:17:42.855Z,10.52
2023-03-16T08:20:12.862Z,12.30
2023-03-16T08:22:39.410Z,13.40
2023-03-16T08:25:10.304Z,12.35
2023-03-16T08:27:38.119Z,14.65
2023-03-16T08:30:07.416Z,11.32
2023-03-16T08:32:34.037Z,43.97
2023-03-16T08:35:00.547Z,22.92
2023-03-16T08:37:27.445Z,16.65
2023-03-16T08:39:54.251Z,13.43
2023-03-16T08:42:21.004Z,15.50
2023-03-16T08:44:47.787Z,14.10
2023-03-16T08:47:14.949Z,13.25
2023-03-16T08:49:41.403Z,14.68
2023-03-16T08:52:10.182Z,17.45
2023-03-16T08:54:37.130Z,13.77
2023-03-16T08:57:03.541Z,14.20
2023-03-16T08:59:30.777Z,14.80
2023-03-16T09:01:57.687Z,12.38
2023-03-16T09:04:24.320Z,17.50
2023-03-16T09:07:09.868Z,12.85
2023-03-16T09:09:37.073Z,15.77
2023-03-16T09:12:04.419Z,11.48
2023-03-16T09:14:30.967Z,9.43
2023-03-16T09:16:57.397Z,9.10
2023-03-16T09:19:24.979Z,12.00
2023-03-16T09:21:51.377Z,7.53
2023-03-16T09:24:17.806Z,9.40
2023-03-16T09:26:44.230Z,9.13
2023-03-16T09:29:10.610Z,9.05
2023-03-16T09:31:37.493Z,9.32
2023-03-16T09:34:04.824Z,6.50
2023-03-16T09:36:31.175Z,7.63
2023-03-16T09:38:57.572Z,8.88
2023-03-16T09:41:42.721Z,9.70
2023-03-16T09:44:31.404Z,6.55
2023-03-16T09:47:01.442Z,6.22
2023-03-16T09:49:36.162Z,41.08
2023-03-16T09:52:30.161Z,25.95
2023-03-16T09:55:04.213Z,10.07
2023-03-16T09:57:36.876Z,5.43
2023-03-16T10:00:19.970Z,8.63
2023-03-16T10:03:05.092Z,5.43
2023-03-16T10:05:32.958Z,7.13
2023-03-16T10:08:22.213Z,7.93
2023-03-16T10:11:25.926Z,6.05
2023-03-16T10:14:11.145Z,7.22
2023-03-16T10:16:43.563Z,8.35
2023-03-16T10:19:42.610Z,7.93
2023-03-16T10:22:26.406Z,7.18
2023-03-16T10:25:14.938Z,5.38
2023-03-16T10:27:44.769Z,5.75
2023-03-16T10:30:28.623Z,4.13
2023-03-16T10:32:57.536Z,7.35
2023-03-16T10:35:46.971Z,5.10
2023-03-16T10:38:30.589Z,5.13
2023-03-16T10:41:00.707Z,5.38
2023-03-16T10:43:29.091Z,5.10
2023-03-16T10:46:00.389Z,5.47
2023-03-16T10:48:28.322Z,4.82
2023-03-16T10:50:57.482Z,5.90
2023-03-16T10:53:28.811Z,6.55
2023-03-16T10:56:11.986Z,4.88
2023-03-16T10:58:42.477Z,5.65
2023-03-16T11:01:18.741Z,3.58
2023-03-16T11:03:51.242Z,5.07
2023-03-16T11:06:22.812Z,5.35
2023-03-16T11:08:49.230Z,7.15
2023-03-16T11:11:29.385Z,4.88
2023-03-16T11:14:03.235Z,6.97
2023-03-16T11:16:39.202Z,4.93
2023-03-16T11:19:27.150Z,4.57
2023-03-16T11:22:01.397Z,4.00
2023-03-16T11:24:42.197Z,5.70
2023-03-16T11:27:21.341Z,3.17
2023-03-16T11:30:25.316Z,4.65
2023-03-16T11:32:54.136Z,2.83
2023-03-16T11:35:29.196Z,4.47
2023-03-16T11:38:17.577Z,4.07
2023-03-16T11:43:51.692Z,4.07
2023-03-16T11:46:23.907Z,3.20
2023-03-16T11:49:07.004Z,7.25
2023-03-16T11:51:47.713Z,8.02
2023-03-16T11:54:17.392Z,3.92
2023-03-16T11:59:38.146Z,3.58
2023-03-16T12:02:32.383Z,6.32
2023-03-16T12:05:14.498Z,3.03
2023-03-16T12:10:31.089Z,3.75
2023-03-16T12:13:30.612Z,3.50
2023-03-16T12:16:05.675Z,3.38
2023-03-16T12:18:49.562Z,4.40
2023-03-16T12:21:40.829Z,4.28
2023-03-16T12:24:15.961Z,3.95
2023-03-16T12:26:43.294Z,3.17
2023-03-16T12:29:24.508Z,4.28
2023-03-16T12:31:58.024Z,5.32
2023-03-16T12:34:34.458Z,3.92
2023-03-16T12:37:14.167Z,4.47
2023-03-16T12:40:15.643Z,3.55
2023-03-16T12:42:50.646Z,4.55
2023-03-16T12:45:39.202Z,3.20
2023-03-16T12:48:19.714Z,3.88
2023-03-16T12:50:55.747Z,15.30
2023-03-16T12:53:40.493Z,11.68
2023-03-16T12:56:09.989Z,5.15
2023-03-16T12:58:40.206Z,4.43
2023-03-16T13:01:10.164Z,3.17
2023-03-16T13:03:37.186Z,3.50
2023-03-16T13:06:04.066Z,4.32
2023-03-16T13:08:42.593Z,3.03
2023-03-16T13:11:12.110Z,3.58
2023-03-16T13:14:00.464Z,4.35
2023-03-16T13:16:33.310Z,3.15
2023-03-16T13:18:59.794Z,4.90
2023-03-16T13:21:26.102Z,4.50
2023-03-16T13:23:58.507Z,4.57
2023-03-16T13:26:47.424Z,2.92
2023-03-16T13:29:27.350Z,3.72
2023-03-16T13:31:56.663Z,3.38
2023-03-16T13:34:29.591Z,2.28
2023-03-16T13:36:57.694Z,3.83
2023-03-16T13:39:30.187Z,4.18
2023-03-16T13:42:08.373Z,4.88
2023-03-16T13:44:39.259Z,4.25
2023-03-16T13:47:06.001Z,5.47
2023-03-16T13:49:32.327Z,3.70
2023-03-16T13:51:58.922Z,3.42
2023-03-16T13:54:30.373Z,4.60
2023-03-16T13:56:59.609Z,5.63
2023-03-16T13:59:26.342Z,5.43
2023-03-16T14:01:58.452Z,3.65
2023-03-16T14:04:29.149Z,6.35
2023-03-16T14:07:01.848Z,5.15
2023-03-16T14:09:31.857Z,3.83
2023-03-16T14:11:58.261Z,5.07
2023-03-16T14:14:50.107Z,3.63
2023-03-16T14:17:19.737Z,5.60
2023-03-16T14:19:56.630Z,5.78
2023-03-16T14:22:29.275Z,12.48
2023-03-16T14:25:00.575Z,7.82
2023-03-16T14:28:00.878Z,4.57
2023-03-16T14:30:30.197Z,5.07
2023-03-16T14:33:24.803Z,5.53
2023-03-16T14:35:56.025Z,4.00
2023-03-16T14:38:35.171Z,5.35
2023-03-16T14:41:05.012Z,3.30
2023-03-16T14:43:35.669Z,5.47
2023-03-16T14:46:07.506Z,4.75
2023-03-16T14:48:35.588Z,6.82
2023-03-16T14:51:03.295Z,5.25
2023-03-16T14:53:30.750Z,5.70
2023-03-16T14:55:58.628Z,5.53
2023-03-16T14:58:25.698Z,4.60
2023-03-16T15:00:53.790Z,7.70
2023-03-16T15:03:23.692Z,6.70
2023-03-16T15:05:51.596Z,6.00
2023-03-16T15:08:22.264Z,47.33
2023-03-16T15:10:49.514Z,7.32
2023-03-16T15:13:34.777Z,5.00
2023-03-16T15:16:04.247Z,4.50
2023-03-16T15:20:57.668Z,6.15
2023-03-16T15:23:24.013Z,6.22
2023-03-16T15:25:52.620Z,6.38
2023-03-16T15:28:21.418Z,6.57
2023-03-16T15:30:52.540Z,6.47
2023-03-16T15:33:18.895Z,6.30
2023-03-16T15:35:47.580Z,6.20
2023-03-16T15:38:16.715Z,8.98
2023-03-16T15:40:44.058Z,8.20
2023-03-16T15:43:12.506Z,8.43
2023-03-16T15:45:38.892Z,8.02
2023-03-16T15:48:05.690Z,7.60
2023-03-16T15:50:32.926Z,7.53
2023-03-16T15:53:30.921Z,12.48
2023-03-16T15:56:03.190Z,8.30
2023-03-16T15:58:31.501Z,7.05
2023-03-16T16:01:00.025Z,8.10
2023-03-16T16:03:27.631Z,8.13
2023-03-16T16:05:54.762Z,9.30
2023-03-16T16:08:21.457Z,9.20
2023-03-16T16:10:50.177Z,7.63
2023-03-16T16:13:23.359Z,7.65
2023-03-16T16:15:51.848Z,8.35
2023-03-16T16:18:35.030Z,7.47
2023-03-16T16:21:03.478Z,24.00
2023-03-16T16:23:32.366Z,21.33
2023-03-16T16:26:02.712Z,7.88
2023-03-16T16:28:31.707Z,8.23
2023-03-16T16:30:59.822Z,7.20
2023-03-16T16:33:32.088Z,8.15
2023-03-16T16:36:01.564Z,8.43
2023-03-16T16:40:58.462Z,9.73
2023-03-16T16:43:33.958Z,8.77
2023-03-16T16:46:02.034Z,8.15
2023-03-16T16:48:37.308Z,9.63
2023-03-16T16:51:07.162Z,11.48
2023-03-16T16:53:33.620Z,7.18
2023-03-16T16:56:00.376Z,9.82
2023-03-16T16:58:27.117Z,10.32
2023-03-16T17:00:56.504Z,7.97
2023-03-16T17:03:27.004Z,9.18
2023-03-16T17:05:55.209Z,10.25
2023-03-16T17:08:23.131Z,9.18
2023-03-16T17:10:49.708Z,9.27
2023-03-16T17:13:29.785Z,8.52
2023-03-16T17:15:56.186Z,8.57
2023-03-16T17:18:22.529Z,9.52
2023-03-16T17:20:50.563Z,11.02
2023-03-16T17:23:33.176Z,10.32
2023-03-16T17:26:06.543Z,10.05
2023-03-16T17:28:38.664Z,8.10
2023-03-16T17:31:05.580Z,8.73
2023-03-16T17:33:31.975Z,10.23
2023-03-16T17:35:58.375Z,24.48
2023-03-16T17:38:25.190Z,34.35
2023-03-16T17:40:52.890Z,8.75
2023-03-16T17:43:22.109Z,11.23
2023-03-16T17:45:51.643Z,9.50
2023-03-16T17:48:20.890Z,9.68
2023-03-16T17:50:48.348Z,10.45
2023-03-16T17:53:16.526Z,10.52
2023-03-16T17:55:44.627Z,9.60
2023-03-16T17:58:30.280Z,11.70
2023-03-16T18:00:57.293Z,14.98
2023-03-16T18:03:26.923Z,9.05
2023-03-16T18:05:54.452Z,11.90
2023-03-16T18:08:29.466Z,8.70
2023-03-16T18:11:02.249Z,10.93
2023-03-16T18:13:34.630Z,9.60
2023-03-16T18:16:02.873Z,11.57
2023-03-16T18:18:32.705Z,12.88
2023-03-16T18:21:00.477Z,13.00
2023-03-16T18:23:30.298Z,11.25
2023-03-16T18:26:03.248Z,13.68
2023-03-16T18:28:30.774Z,8.85
2023-03-16T18:30:58.230Z,8.98
2023-03-16T18:33:32.544Z,9.05
2023-03-16T18:36:13.345Z,8.43
2023-03-16T18:38:44.452Z,21.65
2023-03-16T18:41:22.763Z,27.27
2023-03-16T18:43:50.965Z,9.98
2023-03-16T18:46:27.346Z,10.60
2023-03-16T18:48:59.772Z,10.55
2023-03-16T18:51:26.630Z,9.70
2023-03-16T18:53:53.439Z,11.48
2023-03-16T18:56:26.875Z,8.43
2023-03-16T18:58:54.911Z,11.93
2023-03-16T19:01:32.337Z,12.02
2023-03-16T19:04:00.806Z,11.98
2023-03-16T19:06:32.953Z,9.93
2023-03-16T19:09:03.870Z,10.85
2023-03-16T19:11:30.385Z,9.13
2023-03-16T19:13:56.932Z,10.68
2023-03-16T19:16:23.378Z,10.05
2023-03-16T19:18:50.214Z,10.43
2023-03-16T19:21:19.515Z,9.10
2023-03-16T19:23:56.950Z,10.07
2023-03-16T19:26:24.051Z,8.90
2023-03-16T19:28:50.986Z,11.35
2023-03-16T19:31:22.239Z,10.85
2023-03-16T19:33:49.173Z,17.85
2023-03-16T19:36:19.590Z,14.43
2023-03-16T19:38:50.225Z,13.32
2023-03-16T19:41:26.977Z,9.63
2023-03-16T19:43:55.542Z,9.82
2023-03-16T19:46:22.311Z,9.80
2023-03-16T19:48:48.817Z,8.52
2023-03-16T19:51:17.466Z,10.07
2023-03-16T19:53:44.483Z,10.32
2023-03-16T19:56:19.952Z,8.63
2023-03-16T19:58:49.467Z,12.30
2023-03-16T20:01:19.046Z,9.82
2023-03-16T20:03:47.632Z,9.80
2023-03-16T20:06:20.473Z,8.23
2023-03-16T20:08:48.213Z,12.10
2023-03-16T20:11:24.504Z,9.13
2023-03-16T20:13:51.713Z,9.13
2023-03-16T20:16:24.149Z,9.88
2023-03-16T20:18:54.420Z,8.48
2023-03-16T20:21:21.111Z,10.18
2023-03-16T20:23:47.614Z,9.00
2023-03-16T20:26:27.365Z,9.13
2023-03-16T20:28:53.816Z,10.70
2023-03-16T20:31:26.563Z,10.00
2023-03-16T20:33:53.774Z,8.80
2023-03-16T20:36:22.140Z,8.35
2023-03-16T20:38:48.916Z,11.98
2023-03-16T20:41:32.712Z,8.88
2023-03-16T20:44:01.244Z,10.23
2023-03-16T20:46:32.718Z,7.75
2023-03-16T20:49:00.654Z,13.32
2023-03-16T20:51:28.640Z,8.35
2023-03-16T20:53:55.424Z,9.75
2023-03-16T20:56:24.118Z,7.75
2023-03-16T20:58:54.525Z,10.38
2023-03-16T21:01:21.650Z,8.32
2023-03-16T21:03:51.953Z,8.18
2023-03-16T21:06:23.467Z,8.57
2023-03-16T21:08:52.045Z,9.82
2023-03-16T21:11:30.345Z,11.48
2023-03-16T21:13:56.730Z,9.10
2023-03-16T21:16:23.400Z,9.07
2023-03-16T21:18:49.806Z,9.45
2023-03-16T21:21:18.191Z,9.80
2023-03-16T21:23:45.086Z,11.00
2023-03-16T21:26:16.540Z,10.50
2023-03-16T21:28:43.843Z,8.32
2023-03-16T21:31:19.571Z,8.25
2023-03-16T21:36:16.021Z,8.75
2023-03-16T21:38:42.885Z,10.38
2023-03-16T21:41:09.384Z,8.23
2023-03-16T21:43:36.202Z,8.93
2023-03-16T21:46:03.709Z,8.82
2023-03-16T21:48:36.611Z,7.80
2023-03-16T21:51:03.514Z,8.45
2023-03-16T21:53:34.295Z,8.85
2023-03-16T21:56:01.766Z,10.05
2023-03-16T21:58:28.170Z,11.90
2023-03-16T22:00:55.456Z,8.57
2023-03-16T22:03:49.792Z,8.43
2023-03-16T22:06:17.132Z,8.68
2023-03-16T22:08:43.930Z,9.48
2023-03-16T22:11:17.007Z,8.35
2023-03-16T22:13:43.346Z,10.18
2023-03-16T22:16:16.132Z,10.82
2023-03-16T22:18:45.221Z,9.32
2023-03-16T22:21:38.025Z,9.65
2023-03-16T22:24:07.296Z,9.00
2023-03-16T22:26:33.889Z,13.55
2023-03-16T22:29:01.797Z,12.48
2023-03-16T22:31:38.637Z,12.93
2023-03-16T22:34:06.220Z,9.43
2023-03-16T22:36:33.799Z,9.95
2023-03-16T22:39:05.373Z,10.45
2023-03-16T22:41:31.944Z,10.27
2023-03-16T22:43:59.581Z,11.55
2023-03-16T22:46:28.425Z,9.93
2023-03-16T22:48:56.145Z,10.80
2023-03-16T22:51:32.893Z,11.45
2023-03-16T22:54:02.471Z,12.38
2023-03-16T22:56:30.647Z,19.95
2023-03-16T22:59:04.168Z,11.68
2023-03-16T23:01:38.307Z,11.50
2023-03-16T23:04:13.577Z,10.65
2023-03-16T23:06:39.969Z,11.20
2023-03-16T23:09:06.333Z,13.63
2023-03-16T23:11:34.658Z,12.32
2023-03-16T23:14:01.468Z,10.73
2023-03-16T23:16:35.800Z,11.02
2023-03-16T23:19:04.458Z,12.82
2023-03-16T23:21:33.953Z,11.50
2023-03-16T23:24:04.387Z,9.75
2023-03-16T23:26:31.714Z,10.80
2023-03-16T23:28:58.457Z,9.50
2023-03-16T23:31:27.105Z,9.95
2023-03-16T23:33:54.042Z,8.55
2023-03-16T23:36:24.412Z,9.85
2023-03-16T23:38:51.267Z,8.90
2023-03-16T23:41:22.009Z,8.88
2023-03-16T23:43:49.124Z,10.55
2023-03-16T23:46:20.013Z,10.00
2023-03-16T23:48:48.765Z,8.60
2023-03-16T23:51:36.808Z,9.77
2023-03-16T23:54:17.715Z,9.80
2023-03-16T23:56:44.135Z,10.80
2023-03-16T23:59:10.613Z,12.73
